Terminal Aerodrome Forecast
Issued by NWS Wichita, KS

Home | Current Version | Previous Version | Graphics & Text | Print | Product List | Glossary On
Versions: 1 2 3 4 5 6 7 8 9 10 11 12 13 14 15 16 17 18 19 20 21 22 23
000
FTUS43 KICT 161130
TAFICT
TAF
KICT 161130Z 1612/1712 07007KT 3SM -RA BR OVC004
      TEMPO 1612/1614 3/4SM RA BR OVC002
     FM161400 VRB04KT 1SM -DZ BR OVC003
     FM161600 24009KT P6SM OVC008
     FM162100 29010KT P6SM OVC012
     FM170100 31009KT P6SM OVC012=

USA.gov is the U.S. government's official web portal to all federal, state and local government web resources and services.